createdAt,value
2022-08-22T00:00:11.670Z,10.0
2022-08-22T00:02:51.375Z,6.1
2022-08-22T00:25:24.626Z,11.0
2022-08-22T00:30:08.678Z,11.5
2022-08-22T00:35:00.709Z,11.7
2022-08-22T00:40:03.153Z,11.1
2022-08-22T00:45:16.050Z,11.0
2022-08-22T00:50:00.708Z,10.8
2022-08-22T00:55:00.714Z,11.2
2022-08-22T01:00:16.025Z,10.8
2022-08-22T01:05:00.715Z,10.9
2022-08-22T01:10:00.719Z,11.2
2022-08-22T01:15:04.669Z,11.7
2022-08-22T01:20:00.719Z,12.1
2022-08-22T01:25:21.495Z,13.0
2022-08-22T01:30:13.345Z,13.8
2022-08-22T01:35:00.818Z,13.7
2022-08-22T01:40:00.807Z,13.9
2022-08-22T01:45:16.594Z,13.1
2022-08-22T01:50:00.730Z,12.4
2022-08-22T01:55:00.752Z,12.5
2022-08-22T02:00:01.521Z,12.2
2022-08-22T02:05:00.739Z,12.1
2022-08-22T02:10:00.741Z,12.4
2022-08-22T02:15:07.214Z,12.5
2022-08-22T02:20:00.756Z,12.7
2022-08-22T02:25:00.820Z,13.7
2022-08-22T02:30:07.478Z,13.6
2022-08-22T02:35:00.748Z,13.8
2022-08-22T02:40:00.827Z,14.2
2022-08-22T02:45:11.867Z,14.0
2022-08-22T02:50:00.754Z,13.8
2022-08-22T02:55:00.768Z,14.4
2022-08-22T03:00:25.100Z,14.7
2022-08-22T03:05:16.056Z,14.9
2022-08-22T03:10:00.781Z,15.1
2022-08-22T03:15:06.787Z,14.7
2022-08-22T03:20:00.775Z,14.6
2022-08-22T03:30:10.120Z,15.5
2022-08-22T03:35:00.761Z,15.6
2022-08-22T03:40:00.837Z,16.2
2022-08-22T03:45:16.097Z,16.2
2022-08-22T03:50:00.755Z,15.8
2022-08-22T03:55:00.778Z,15.6
2022-08-22T04:00:07.350Z,15.9
2022-08-22T04:05:00.765Z,16.9
2022-08-22T04:10:00.769Z,17.1
2022-08-22T04:15:11.727Z,18.2
2022-08-22T04:20:00.772Z,17.6
2022-08-22T04:25:03.680Z,17.4
2022-08-22T04:30:08.488Z,16.8
2022-08-22T04:35:00.776Z,16.5
2022-08-22T04:40:00.784Z,15.8
2022-08-22T04:45:07.675Z,15.8
2022-08-22T04:50:00.781Z,15.2
2022-08-22T04:55:16.553Z,15.4
2022-08-22T05:00:05.287Z,15.8
2022-08-22T05:05:00.781Z,16.3
2022-08-22T05:10:27.891Z,14.1
2022-08-22T05:15:06.082Z,15.1
2022-08-22T05:20:00.790Z,15.4
2022-08-22T05:25:04.738Z,16.5
2022-08-22T05:30:04.838Z,16.6
2022-08-22T05:35:00.797Z,19.3
2022-08-22T05:40:01.779Z,19.4
2022-08-22T05:45:02.040Z,20.3
2022-08-22T05:50:00.801Z,19.8
2022-08-22T05:55:00.820Z,20.3
2022-08-22T06:00:04.166Z,21.4
2022-08-22T06:05:00.808Z,21.5
2022-08-22T06:10:00.811Z,22.2
2022-08-22T06:15:11.751Z,23.0
2022-08-22T06:20:00.813Z,23.2
2022-08-22T06:25:00.942Z,23.1
2022-08-22T06:30:02.690Z,23.6
2022-08-22T06:35:00.822Z,22.3
2022-08-22T06:40:00.851Z,22.0
2022-08-22T06:45:06.271Z,21.2
2022-08-22T06:50:04.203Z,19.9
2022-08-22T06:55:00.821Z,19.4
2022-08-22T07:00:05.106Z,19.6
2022-08-22T07:05:00.881Z,19.0
2022-08-22T07:15:16.149Z,19.8
2022-08-22T07:20:06.959Z,20.3
2022-08-22T07:25:00.824Z,18.1
2022-08-22T07:30:05.846Z,17.9
2022-08-22T07:35:07.639Z,18.0
2022-08-22T07:40:00.882Z,18.5
2022-08-22T07:45:06.060Z,18.2
2022-08-22T07:50:00.829Z,20.4
2022-08-22T07:55:00.832Z,20.8
2022-08-22T08:00:05.068Z,20.9
2022-08-22T08:05:00.837Z,19.6
2022-08-22T08:10:05.942Z,19.2
2022-08-22T08:15:02.765Z,18.2
2022-08-22T08:20:04.704Z,18.0
2022-08-22T08:25:01.957Z,17.7
2022-08-22T08:30:03.780Z,18.4
2022-08-22T08:35:01.107Z,18.6
2022-08-22T08:40:07.858Z,18.7
2022-08-22T08:45:16.179Z,18.8
2022-08-22T08:50:10.278Z,18.4
2022-08-22T09:00:06.149Z,18.0
2022-08-22T09:05:16.237Z,19.0
2022-08-22T09:10:00.852Z,17.2
2022-08-22T09:15:12.030Z,16.4
2022-08-22T09:20:18.115Z,14.9
2022-08-22T09:25:00.857Z,12.5
2022-08-22T09:30:08.590Z,9.7
2022-08-22T09:35:00.863Z,8.7
2022-08-22T09:40:00.914Z,8.2
2022-08-22T10:05:35.343Z,4.2
2022-08-22T10:10:01.092Z,4.7
2022-08-22T10:16:01.076Z,4.3
2022-08-22T10:21:01.128Z,4.6
2022-08-22T10:26:01.064Z,5.0
2022-08-22T10:31:07.474Z,5.4
2022-08-22T10:36:01.051Z,6.0
2022-08-22T10:41:08.815Z,6.8
2022-08-22T10:46:12.445Z,6.9
2022-08-22T10:51:08.663Z,6.8
2022-08-22T10:56:01.057Z,7.2
2022-08-22T11:06:05.873Z,6.9
2022-08-22T11:11:01.132Z,7.8
2022-08-22T11:16:01.173Z,8.5
2022-08-22T11:26:01.062Z,8.6
2022-08-22T11:31:01.053Z,8.9
2022-08-22T11:41:01.174Z,8.3
2022-08-22T11:46:01.054Z,8.2
2022-08-22T12:01:14.464Z,7.6
2022-08-22T12:06:01.088Z,7.7
2022-08-22T12:16:01.058Z,7.1
2022-08-22T12:21:01.075Z,6.8
2022-08-22T12:26:01.061Z,6.9
2022-08-22T12:31:14.824Z,7.1
2022-08-22T12:36:01.058Z,7.0
2022-08-22T12:41:01.166Z,7.9
2022-08-22T12:46:01.053Z,8.6
2022-08-22T12:51:16.787Z,9.4
2022-08-22T12:56:05.526Z,8.9
2022-08-22T13:01:01.084Z,9.2
2022-08-22T13:06:01.058Z,9.4
2022-08-22T13:11:01.099Z,9.0
2022-08-22T13:16:01.061Z,8.6
2022-08-22T13:21:04.289Z,9.6
2022-08-22T13:26:01.207Z,10.1
2022-08-22T13:41:01.329Z,10.6
2022-08-22T13:46:01.790Z,10.2
2022-08-22T13:51:01.063Z,9.9
2022-08-22T13:56:01.065Z,9.7
2022-08-22T14:01:11.258Z,9.9
2022-08-22T14:06:06.199Z,9.3
2022-08-22T14:11:02.011Z,9.5
2022-08-22T14:16:04.866Z,9.1
2022-08-22T14:21:01.105Z,8.7
2022-08-22T14:26:01.077Z,8.9
2022-08-22T14:31:05.789Z,8.7
2022-08-22T14:36:10.002Z,7.9
2022-08-22T14:46:01.910Z,8.0
2022-08-22T14:51:01.069Z,7.5
2022-08-22T14:56:18.074Z,8.0
2022-08-22T15:01:01.052Z,8.4
2022-08-22T15:06:01.052Z,8.2
2022-08-22T15:11:06.403Z,7.7
2022-08-22T15:16:04.746Z,7.6
2022-08-22T15:21:01.056Z,7.1
2022-08-22T15:26:01.059Z,7.0
2022-08-22T15:31:03.640Z,7.1
2022-08-22T15:36:01.072Z,7.4
2022-08-22T15:41:01.050Z,7.2
2022-08-22T15:46:01.047Z,7.4
2022-08-22T15:51:05.054Z,7.3
2022-08-22T15:56:04.882Z,6.9
2022-08-22T16:06:01.065Z,7.1
2022-08-22T16:11:15.937Z,6.5
2022-08-22T16:16:10.617Z,6.2
2022-08-22T16:21:01.133Z,7.1
2022-08-22T16:26:01.088Z,6.5
2022-08-22T16:37:01.116Z,6.6
2022-08-22T16:42:16.387Z,6.9
2022-08-22T16:47:16.389Z,6.3
2022-08-22T16:57:01.054Z,6.0
2022-08-22T17:02:01.056Z,6.1
2022-08-22T17:07:01.073Z,6.0
2022-08-22T17:17:11.615Z,5.8
2022-08-22T17:22:01.119Z,5.6
2022-08-22T17:27:01.061Z,5.4
2022-08-22T17:32:01.061Z,5.0
2022-08-22T17:37:09.289Z,4.5
2022-08-22T17:42:20.897Z,4.9
2022-08-22T17:47:01.046Z,4.7
2022-08-22T17:52:01.048Z,4.4
2022-08-22T17:57:05.584Z,4.5
2022-08-22T18:02:01.052Z,4.7
2022-08-22T18:07:01.052Z,4.4
2022-08-22T18:12:01.065Z,4.3
2022-08-22T18:17:12.143Z,5.3
2022-08-22T18:22:05.742Z,5.2
2022-08-22T18:27:01.110Z,4.8
2022-08-22T18:32:01.062Z,5.0
2022-08-22T18:37:01.075Z,5.2
2022-08-22T18:42:01.046Z,4.9
2022-08-22T18:47:10.097Z,5.5
2022-08-22T18:52:01.052Z,6.0
2022-08-22T18:57:10.294Z,6.2
2022-08-22T19:02:01.117Z,6.5
2022-08-22T19:07:16.376Z,6.9
2022-08-22T19:12:11.676Z,6.8
2022-08-22T19:22:01.062Z,7.4
2022-08-22T19:32:01.061Z,6.7
2022-08-22T19:37:01.177Z,6.4
2022-08-22T19:42:01.041Z,6.6
2022-08-22T19:47:01.056Z,6.1
2022-08-22T19:52:01.070Z,6.4
2022-08-22T19:57:01.058Z,6.8
2022-08-22T20:07:01.057Z,6.4
2022-08-22T20:12:01.059Z,6.6
2022-08-22T20:17:05.263Z,6.9
2022-08-22T20:22:02.723Z,7.2
2022-08-22T20:27:13.702Z,7.9
2022-08-22T20:32:02.735Z,8.5
2022-08-22T20:37:23.553Z,8.3
2022-08-22T20:43:01.052Z,7.6
2022-08-22T20:48:01.175Z,6.9
2022-08-22T20:53:01.056Z,5.7
2022-08-22T20:58:01.311Z,5.5
2022-08-22T21:03:01.055Z,5.6
2022-08-22T21:08:01.143Z,5.8
2022-08-22T21:18:01.264Z,6.0
2022-08-22T21:23:01.068Z,5.8
2022-08-22T21:28:01.283Z,6.0
2022-08-22T21:33:01.907Z,5.6
2022-08-22T21:43:01.152Z,6.1
2022-08-22T21:48:01.238Z,6.6
2022-08-22T21:53:01.183Z,5.8
2022-08-22T21:58:01.137Z,6.0
2022-08-22T22:03:01.066Z,6.8
2022-08-22T22:08:01.284Z,6.2
2022-08-22T22:13:01.055Z,6.6
2022-08-22T22:18:02.739Z,7.4
2022-08-22T22:23:01.175Z,8.0
2022-08-22T22:28:01.256Z,7.9
2022-08-22T22:33:01.156Z,8.6
2022-08-22T22:38:02.798Z,7.9
2022-08-22T22:48:01.257Z,7.5
2022-08-22T22:54:01.055Z,7.9
2022-08-22T22:59:12.715Z,8.1
2022-08-22T23:04:06.587Z,8.5
2022-08-22T23:09:01.057Z,9.1
2022-08-22T23:14:01.664Z,9.5
2022-08-22T23:19:01.059Z,9.0
2022-08-22T23:24:01.070Z,8.9
2022-08-22T23:29:01.169Z,9.8
2022-08-22T23:34:01.053Z,10.5
2022-08-22T23:39:01.659Z,11.8
2022-08-22T23:44:01.087Z,12.1
2022-08-22T23:49:01.058Z,13.2
2022-08-22T23:54:01.067Z,12.6
2022-08-22T23:59:09.111Z,11.9
